sensor_id;sensor_type;location;lat;lon;timestamp;P1;durP1;ratioP1;P2;durP2;ratioP2
63807;SDS011;49961;43.970;22.868;2022-10-16T00:00:47;20.80;;;10.07;;
63807;SDS011;49961;43.970;22.868;2022-10-16T00:01:47;12.83;;;9.90;;
63807;SDS011;49961;43.970;22.868;2022-10-16T00:02:47;12.17;;;9.60;;
63807;SDS011;49961;43.970;22.868;2022-10-16T00:03:48;16.10;;;9.97;;
63807;SDS011;49961;43.970;22.868;2022-10-16T00:04:49;12.10;;;9.43;;
63807;SDS011;49961;43.970;22.868;2022-10-16T00:05:49;14.43;;;9.40;;
63807;SDS011;49961;43.970;22.868;2022-10-16T00:06:50;10.30;;;8.70;;
63807;SDS011;49961;43.970;22.868;2022-10-16T00:07:50;15.20;;;9.27;;
63807;SDS011;49961;43.970;22.868;2022-10-16T00:08:51;11.23;;;8.23;;
63807;SDS011;49961;43.970;22.868;2022-10-16T00:09:52;10.90;;;8.07;;
63807;SDS011;49961;43.970;22.868;2022-10-16T00:10:57;10.90;;;8.70;;
63807;SDS011;49961;43.970;22.868;2022-10-16T00:11:59;11.40;;;8.07;;
63807;SDS011;49961;43.970;22.868;2022-10-16T00:12:59;12.13;;;8.53;;
63807;SDS011;49961;43.970;22.868;2022-10-16T00:14:01;12.87;;;8.40;;
63807;SDS011;49961;43.970;22.868;2022-10-16T00:15:03;12.67;;;7.83;;
63807;SDS011;49961;43.970;22.868;2022-10-16T00:16:03;10.80;;;8.00;;
63807;SDS011;49961;43.970;22.868;2022-10-16T00:17:05;10.55;;;7.63;;
63807;SDS011;49961;43.970;22.868;2022-10-16T00:18:05;11.33;;;7.70;;
63807;SDS011;49961;43.970;22.868;2022-10-16T00:19:05;14.27;;;8.80;;
63807;SDS011;49961;43.970;22.868;2022-10-16T00:20:07;9.83;;;8.17;;
63807;SDS011;49961;43.970;22.868;2022-10-16T00:21:12;10.23;;;8.70;;
63807;SDS011;49961;43.970;22.868;2022-10-16T00:22:14;9.65;;;8.00;;
63807;SDS011;49961;43.970;22.868;2022-10-16T00:23:15;10.33;;;8.57;;
63807;SDS011;49961;43.970;22.868;2022-10-16T00:24:15;11.30;;;8.23;;
63807;SDS011;49961;43.970;22.868;2022-10-16T00:25:16;14.53;;;8.73;;
63807;SDS011;49961;43.970;22.868;2022-10-16T00:26:16;15.40;;;9.30;;
63807;SDS011;49961;43.970;22.868;2022-10-16T00:27:18;12.57;;;8.83;;
63807;SDS011;49961;43.970;22.868;2022-10-16T00:28:18;10.47;;;8.30;;
63807;SDS011;49961;43.970;22.868;2022-10-16T00:29:18;13.20;;;8.90;;
63807;SDS011;49961;43.970;22.868;2022-10-16T00:30:19;10.87;;;8.37;;
63807;SDS011;49961;43.970;22.868;2022-10-16T00:31:20;13.10;;;8.67;;
63807;SDS011;49961;43.970;22.868;2022-10-16T00:32:21;14.60;;;9.03;;
63807;SDS011;49961;43.970;22.868;2022-10-16T00:33:22;10.50;;;7.93;;
63807;SDS011;49961;43.970;22.868;2022-10-16T00:34:22;13.73;;;8.20;;
63807;SDS011;49961;43.970;22.868;2022-10-16T00:35:23;13.33;;;8.70;;
63807;SDS011;49961;43.970;22.868;2022-10-16T00:36:24;10.20;;;7.87;;
63807;SDS011;49961;43.970;22.868;2022-10-16T00:37:25;12.40;;;8.27;;
63807;SDS011;49961;43.970;22.868;2022-10-16T00:38:26;12.77;;;8.27;;
63807;SDS011;49961;43.970;22.868;2022-10-16T00:39:26;12.03;;;8.50;;
63807;SDS011;49961;43.970;22.868;2022-10-16T00:40:27;12.80;;;8.03;;
63807;SDS011;49961;43.970;22.868;2022-10-16T00:41:28;13.57;;;8.10;;
63807;SDS011;49961;43.970;22.868;2022-10-16T00:42:30;12.57;;;8.23;;
63807;SDS011;49961;43.970;22.868;2022-10-16T00:44:50;12.73;;;8.50;;
63807;SDS011;49961;43.970;22.868;2022-10-16T00:45:52;10.63;;;8.00;;
63807;SDS011;49961;43.970;22.868;2022-10-16T00:46:53;12.83;;;8.23;;
63807;SDS011;49961;43.970;22.868;2022-10-16T00:47:53;12.70;;;7.80;;
63807;SDS011;49961;43.970;22.868;2022-10-16T00:49:00;13.52;;;7.70;;
63807;SDS011;49961;43.970;22.868;2022-10-16T00:50:18;11.00;;;7.93;;
63807;SDS011;49961;43.970;22.868;2022-10-16T00:51:35;15.30;;;7.77;;
63807;SDS011;49961;43.970;22.868;2022-10-16T00:52:38;11.47;;;7.50;;
63807;SDS011;49961;43.970;22.868;2022-10-16T00:53:42;13.52;;;8.32;;
63807;SDS011;49961;43.970;22.868;2022-10-16T00:54:42;10.97;;;7.53;;
63807;SDS011;49961;43.970;22.868;2022-10-16T00:55:43;13.80;;;7.97;;
63807;SDS011;49961;43.970;22.868;2022-10-16T00:56:44;12.63;;;7.13;;
63807;SDS011;49961;43.970;22.868;2022-10-16T00:57:46;10.27;;;7.40;;
63807;SDS011;49961;43.970;22.868;2022-10-16T00:58:47;9.88;;;7.18;;
63807;SDS011;49961;43.970;22.868;2022-10-16T00:59:48;10.87;;;7.30;;
63807;SDS011;49961;43.970;22.868;2022-10-16T01:00:48;10.33;;;7.07;;
63807;SDS011;49961;43.970;22.868;2022-10-16T01:01:49;8.70;;;7.13;;
63807;SDS011;49961;43.970;22.868;2022-10-16T01:02:53;8.87;;;6.73;;
63807;SDS011;49961;43.970;22.868;2022-10-16T01:03:57;9.33;;;6.90;;
63807;SDS011;49961;43.970;22.868;2022-10-16T01:04:58;11.33;;;6.67;;
63807;SDS011;49961;43.970;22.868;2022-10-16T01:06:01;9.17;;;6.90;;
63807;SDS011;49961;43.970;22.868;2022-10-16T01:07:27;9.38;;;7.20;;
63807;SDS011;49961;43.970;22.868;2022-10-16T01:13:07;13.10;;;7.80;;
63807;SDS011;49961;43.970;22.868;2022-10-16T01:14:14;12.27;;;7.50;;
63807;SDS011;49961;43.970;22.868;2022-10-16T01:15:33;15.63;;;8.30;;
63807;SDS011;49961;43.970;22.868;2022-10-16T01:16:43;18.67;;;8.27;;
63807;SDS011;49961;43.970;22.868;2022-10-16T01:21:41;12.70;;;7.50;;
63807;SDS011;49961;43.970;22.868;2022-10-16T01:22:57;10.27;;;7.65;;
63807;SDS011;49961;43.970;22.868;2022-10-16T01:28:12;13.45;;;7.57;;
63807;SDS011;49961;43.970;22.868;2022-10-16T01:29:16;14.60;;;7.65;;
63807;SDS011;49961;43.970;22.868;2022-10-16T01:30:23;12.38;;;7.07;;
63807;SDS011;49961;43.970;22.868;2022-10-16T01:31:29;8.73;;;6.95;;
63807;SDS011;49961;43.970;22.868;2022-10-16T01:32:40;9.40;;;6.60;;
63807;SDS011;49961;43.970;22.868;2022-10-16T01:33:46;12.85;;;7.20;;
63807;SDS011;49961;43.970;22.868;2022-10-16T01:36:29;12.18;;;7.30;;
63807;SDS011;49961;43.970;22.868;2022-10-16T01:37:38;10.43;;;7.15;;
63807;SDS011;49961;43.970;22.868;2022-10-16T01:38:44;10.48;;;7.07;;
63807;SDS011;49961;43.970;22.868;2022-10-16T01:39:47;13.07;;;7.00;;
63807;SDS011;49961;43.970;22.868;2022-10-16T01:40:52;10.15;;;7.13;;
63807;SDS011;49961;43.970;22.868;2022-10-16T01:42:11;10.45;;;7.28;;
63807;SDS011;49961;43.970;22.868;2022-10-16T01:43:18;10.98;;;7.32;;
63807;SDS011;49961;43.970;22.868;2022-10-16T01:44:25;10.10;;;7.40;;
63807;SDS011;49961;43.970;22.868;2022-10-16T01:45:29;13.82;;;8.10;;
63807;SDS011;49961;43.970;22.868;2022-10-16T01:46:31;10.43;;;7.60;;
63807;SDS011;49961;43.970;22.868;2022-10-16T01:47:34;11.13;;;8.57;;
63807;SDS011;49961;43.970;22.868;2022-10-16T01:48:35;10.63;;;8.40;;
63807;SDS011;49961;43.970;22.868;2022-10-16T01:49:37;12.77;;;8.93;;
63807;SDS011;49961;43.970;22.868;2022-10-16T01:50:40;13.17;;;8.73;;
63807;SDS011;49961;43.970;22.868;2022-10-16T01:51:44;11.33;;;8.10;;
63807;SDS011;49961;43.970;22.868;2022-10-16T01:52:49;12.70;;;8.53;;
63807;SDS011;49961;43.970;22.868;2022-10-16T01:53:53;11.67;;;9.03;;
63807;SDS011;49961;43.970;22.868;2022-10-16T01:54:57;9.33;;;7.57;;
63807;SDS011;49961;43.970;22.868;2022-10-16T01:56:00;12.30;;;7.93;;
63807;SDS011;49961;43.970;22.868;2022-10-16T01:57:04;12.90;;;9.00;;
63807;SDS011;49961;43.970;22.868;2022-10-16T01:58:07;10.57;;;7.27;;
63807;SDS011;49961;43.970;22.868;2022-10-16T01:59:11;11.90;;;9.07;;
63807;SDS011;49961;43.970;22.868;2022-10-16T02:00:15;17.47;;;8.63;;
63807;SDS011;49961;43.970;22.868;2022-10-16T02:01:17;13.63;;;8.33;;
63807;SDS011;49961;43.970;22.868;2022-10-16T02:02:21;15.73;;;8.63;;
63807;SDS011;49961;43.970;22.868;2022-10-16T02:03:25;14.13;;;7.57;;
63807;SDS011;49961;43.970;22.868;2022-10-16T02:05:37;13.10;;;8.93;;
63807;SDS011;49961;43.970;22.868;2022-10-16T02:06:39;12.70;;;9.07;;
63807;SDS011;49961;43.970;22.868;2022-10-16T02:07:40;15.43;;;8.50;;
63807;SDS011;49961;43.970;22.868;2022-10-16T02:08:42;13.63;;;8.27;;
63807;SDS011;49961;43.970;22.868;2022-10-16T02:09:44;15.77;;;8.67;;
63807;SDS011;49961;43.970;22.868;2022-10-16T02:10:45;17.00;;;8.30;;
63807;SDS011;49961;43.970;22.868;2022-10-16T02:11:45;12.47;;;8.00;;
63807;SDS011;49961;43.970;22.868;2022-10-16T02:12:50;12.57;;;7.80;;
63807;SDS011;49961;43.970;22.868;2022-10-16T02:14:01;10.73;;;8.10;;
63807;SDS011;49961;43.970;22.868;2022-10-16T02:15:05;11.77;;;7.93;;
63807;SDS011;49961;43.970;22.868;2022-10-16T02:16:06;12.37;;;7.90;;
63807;SDS011;49961;43.970;22.868;2022-10-16T02:17:11;13.37;;;7.27;;
63807;SDS011;49961;43.970;22.868;2022-10-16T02:18:14;9.83;;;7.33;;
63807;SDS011;49961;43.970;22.868;2022-10-16T02:19:15;15.20;;;8.13;;
63807;SDS011;49961;43.970;22.868;2022-10-16T02:20:20;17.60;;;8.67;;
63807;SDS011;49961;43.970;22.868;2022-10-16T02:21:26;18.67;;;8.97;;
63807;SDS011;49961;43.970;22.868;2022-10-16T02:22:38;26.13;;;8.47;;
63807;SDS011;49961;43.970;22.868;2022-10-16T02:24:07;14.80;;;8.33;;
63807;SDS011;49961;43.970;22.868;2022-10-16T02:25:27;11.47;;;7.03;;
63807;SDS011;49961;43.970;22.868;2022-10-16T02:26:35;12.70;;;7.40;;
63807;SDS011;49961;43.970;22.868;2022-10-16T02:27:45;9.93;;;6.60;;
63807;SDS011;49961;43.970;22.868;2022-10-16T02:28:54;10.60;;;6.83;;
63807;SDS011;49961;43.970;22.868;2022-10-16T02:30:03;11.20;;;7.00;;
63807;SDS011;49961;43.970;22.868;2022-10-16T02:31:09;10.67;;;6.23;;
63807;SDS011;49961;43.970;22.868;2022-10-16T02:32:15;9.53;;;7.07;;
63807;SDS011;49961;43.970;22.868;2022-10-16T02:33:19;13.23;;;7.60;;
63807;SDS011;49961;43.970;22.868;2022-10-16T02:34:23;14.27;;;7.83;;
63807;SDS011;49961;43.970;22.868;2022-10-16T02:35:26;12.10;;;8.70;;
63807;SDS011;49961;43.970;22.868;2022-10-16T02:36:28;11.33;;;9.07;;
63807;SDS011;49961;43.970;22.868;2022-10-16T02:37:29;11.83;;;9.00;;
63807;SDS011;49961;43.970;22.868;2022-10-16T02:38:31;13.40;;;8.00;;
63807;SDS011;49961;43.970;22.868;2022-10-16T02:39:32;16.83;;;8.10;;
63807;SDS011;49961;43.970;22.868;2022-10-16T02:40:33;11.50;;;7.70;;
63807;SDS011;49961;43.970;22.868;2022-10-16T02:41:34;10.83;;;7.57;;
63807;SDS011;49961;43.970;22.868;2022-10-16T02:42:36;12.67;;;7.27;;
63807;SDS011;49961;43.970;22.868;2022-10-16T02:43:38;13.83;;;8.47;;
63807;SDS011;49961;43.970;22.868;2022-10-16T02:44:39;12.03;;;8.30;;
63807;SDS011;49961;43.970;22.868;2022-10-16T02:45:40;12.30;;;7.47;;
63807;SDS011;49961;43.970;22.868;2022-10-16T02:46:40;12.43;;;8.10;;
63807;SDS011;49961;43.970;22.868;2022-10-16T02:47:41;13.73;;;8.73;;
63807;SDS011;49961;43.970;22.868;2022-10-16T02:48:41;19.60;;;8.30;;
63807;SDS011;49961;43.970;22.868;2022-10-16T02:49:42;11.03;;;7.03;;
63807;SDS011;49961;43.970;22.868;2022-10-16T02:50:42;13.80;;;9.30;;
63807;SDS011;49961;43.970;22.868;2022-10-16T02:51:42;13.30;;;9.13;;
63807;SDS011;49961;43.970;22.868;2022-10-16T02:52:43;20.63;;;9.37;;
63807;SDS011;49961;43.970;22.868;2022-10-16T02:53:43;12.90;;;8.63;;
63807;SDS011;49961;43.970;22.868;2022-10-16T02:54:44;14.67;;;9.07;;
63807;SDS011;49961;43.970;22.868;2022-10-16T02:55:44;16.20;;;9.77;;
63807;SDS011;49961;43.970;22.868;2022-10-16T02:56:45;13.07;;;9.70;;
63807;SDS011;49961;43.970;22.868;2022-10-16T02:57:45;14.10;;;10.07;;
63807;SDS011;49961;43.970;22.868;2022-10-16T02:58:46;14.87;;;10.03;;
63807;SDS011;49961;43.970;22.868;2022-10-16T02:59:46;13.67;;;8.90;;
63807;SDS011;49961;43.970;22.868;2022-10-16T03:00:46;12.13;;;8.60;;
63807;SDS011;49961;43.970;22.868;2022-10-16T03:01:47;15.53;;;9.83;;
63807;SDS011;49961;43.970;22.868;2022-10-16T03:02:47;12.63;;;8.63;;
63807;SDS011;49961;43.970;22.868;2022-10-16T03:03:48;19.70;;;9.50;;
63807;SDS011;49961;43.970;22.868;2022-10-16T03:04:48;21.70;;;10.07;;
63807;SDS011;49961;43.970;22.868;2022-10-16T03:05:49;19.13;;;10.27;;
63807;SDS011;49961;43.970;22.868;2022-10-16T03:06:50;23.03;;;10.80;;
63807;SDS011;49961;43.970;22.868;2022-10-16T03:07:50;19.83;;;9.73;;
63807;SDS011;49961;43.970;22.868;2022-10-16T03:08:52;22.10;;;10.53;;
63807;SDS011;49961;43.970;22.868;2022-10-16T03:09:53;15.43;;;9.40;;
63807;SDS011;49961;43.970;22.868;2022-10-16T03:10:54;20.53;;;10.43;;
63807;SDS011;49961;43.970;22.868;2022-10-16T03:11:55;20.23;;;9.93;;
63807;SDS011;49961;43.970;22.868;2022-10-16T03:12:55;16.67;;;9.80;;
63807;SDS011;49961;43.970;22.868;2022-10-16T03:13:56;13.40;;;9.00;;
63807;SDS011;49961;43.970;22.868;2022-10-16T03:14:56;11.33;;;8.63;;
63807;SDS011;49961;43.970;22.868;2022-10-16T03:15:57;11.90;;;8.63;;
63807;SDS011;49961;43.970;22.868;2022-10-16T03:16:58;15.50;;;9.70;;
63807;SDS011;49961;43.970;22.868;2022-10-16T03:17:58;12.83;;;8.80;;
63807;SDS011;49961;43.970;22.868;2022-10-16T03:18:59;12.77;;;9.03;;
63807;SDS011;49961;43.970;22.868;2022-10-16T03:19:59;12.93;;;8.63;;
63807;SDS011;49961;43.970;22.868;2022-10-16T03:21:00;11.10;;;7.97;;
63807;SDS011;49961;43.970;22.868;2022-10-16T03:22:00;9.70;;;6.87;;
63807;SDS011;49961;43.970;22.868;2022-10-16T03:23:01;10.27;;;6.70;;
63807;SDS011;49961;43.970;22.868;2022-10-16T03:24:02;11.60;;;6.23;;
63807;SDS011;49961;43.970;22.868;2022-10-16T03:25:03;10.73;;;6.60;;
63807;SDS011;49961;43.970;22.868;2022-10-16T03:26:04;11.77;;;6.90;;
63807;SDS011;49961;43.970;22.868;2022-10-16T03:27:04;15.27;;;8.60;;
63807;SDS011;49961;43.970;22.868;2022-10-16T03:28:05;18.57;;;8.43;;
63807;SDS011;49961;43.970;22.868;2022-10-16T03:29:06;19.87;;;8.13;;
63807;SDS011;49961;43.970;22.868;2022-10-16T03:30:06;14.90;;;8.33;;
63807;SDS011;49961;43.970;22.868;2022-10-16T03:31:07;13.53;;;7.50;;
63807;SDS011;49961;43.970;22.868;2022-10-16T03:32:08;15.10;;;7.37;;
63807;SDS011;49961;43.970;22.868;2022-10-16T03:33:08;11.03;;;7.20;;
63807;SDS011;49961;43.970;22.868;2022-10-16T03:34:09;15.80;;;7.73;;
63807;SDS011;49961;43.970;22.868;2022-10-16T03:35:09;14.57;;;7.00;;
63807;SDS011;49961;43.970;22.868;2022-10-16T03:36:10;13.23;;;7.30;;
63807;SDS011;49961;43.970;22.868;2022-10-16T03:37:10;8.70;;;6.93;;
63807;SDS011;49961;43.970;22.868;2022-10-16T03:38:11;11.23;;;6.60;;
63807;SDS011;49961;43.970;22.868;2022-10-16T03:39:11;8.57;;;6.50;;
63807;SDS011;49961;43.970;22.868;2022-10-16T03:40:13;8.67;;;6.40;;
63807;SDS011;49961;43.970;22.868;2022-10-16T03:41:13;10.30;;;6.37;;
63807;SDS011;49961;43.970;22.868;2022-10-16T03:42:14;7.97;;;5.90;;
63807;SDS011;49961;43.970;22.868;2022-10-16T03:43:15;10.23;;;6.80;;
63807;SDS011;49961;43.970;22.868;2022-10-16T03:44:15;8.50;;;6.50;;
63807;SDS011;49961;43.970;22.868;2022-10-16T03:45:16;7.97;;;6.20;;
63807;SDS011;49961;43.970;22.868;2022-10-16T03:46:16;11.83;;;6.97;;
63807;SDS011;49961;43.970;22.868;2022-10-16T03:47:17;8.90;;;6.10;;
63807;SDS011;49961;43.970;22.868;2022-10-16T03:48:21;8.90;;;6.70;;
63807;SDS011;49961;43.970;22.868;2022-10-16T03:49:21;10.80;;;7.07;;
63807;SDS011;49961;43.970;22.868;2022-10-16T03:50:22;9.57;;;6.60;;
63807;SDS011;49961;43.970;22.868;2022-10-16T03:51:22;10.27;;;7.27;;
63807;SDS011;49961;43.970;22.868;2022-10-16T03:52:23;10.10;;;7.13;;
63807;SDS011;49961;43.970;22.868;2022-10-16T03:53:23;10.90;;;7.43;;
63807;SDS011;49961;43.970;22.868;2022-10-16T03:54:24;9.90;;;6.47;;
63807;SDS011;49961;43.970;22.868;2022-10-16T03:55:25;9.30;;;6.90;;
63807;SDS011;49961;43.970;22.868;2022-10-16T03:56:25;13.90;;;7.43;;
63807;SDS011;49961;43.970;22.868;2022-10-16T03:57:26;15.00;;;7.53;;
63807;SDS011;49961;43.970;22.868;2022-10-16T03:58:26;10.83;;;7.30;;
63807;SDS011;49961;43.970;22.868;2022-10-16T03:59:27;14.80;;;7.60;;
63807;SDS011;49961;43.970;22.868;2022-10-16T04:00:27;9.77;;;7.43;;
63807;SDS011;49961;43.970;22.868;2022-10-16T04:01:28;9.93;;;8.07;;
63807;SDS011;49961;43.970;22.868;2022-10-16T04:02:28;11.03;;;8.17;;
63807;SDS011;49961;43.970;22.868;2022-10-16T04:03:29;14.67;;;8.50;;
63807;SDS011;49961;43.970;22.868;2022-10-16T04:04:29;13.57;;;8.10;;
63807;SDS011;49961;43.970;22.868;2022-10-16T04:05:29;12.70;;;8.97;;
63807;SDS011;49961;43.970;22.868;2022-10-16T04:06:30;12.97;;;8.97;;
63807;SDS011;49961;43.970;22.868;2022-10-16T04:07:30;18.90;;;8.77;;
63807;SDS011;49961;43.970;22.868;2022-10-16T04:08:31;12.13;;;8.50;;
63807;SDS011;49961;43.970;22.868;2022-10-16T04:09:34;17.33;;;8.52;;
63807;SDS011;49961;43.970;22.868;2022-10-16T04:10:35;10.30;;;8.50;;
63807;SDS011;49961;43.970;22.868;2022-10-16T04:11:35;10.63;;;7.80;;
63807;SDS011;49961;43.970;22.868;2022-10-16T04:12:36;10.33;;;8.10;;
63807;SDS011;49961;43.970;22.868;2022-10-16T04:13:36;11.37;;;8.13;;
63807;SDS011;49961;43.970;22.868;2022-10-16T04:14:37;13.87;;;7.70;;
63807;SDS011;49961;43.970;22.868;2022-10-16T04:15:37;14.57;;;7.83;;
63807;SDS011;49961;43.970;22.868;2022-10-16T04:16:38;21.03;;;8.20;;
63807;SDS011;49961;43.970;22.868;2022-10-16T04:17:38;21.50;;;8.77;;
63807;SDS011;49961;43.970;22.868;2022-10-16T04:18:39;27.23;;;8.63;;
63807;SDS011;49961;43.970;22.868;2022-10-16T04:19:39;19.03;;;8.37;;
63807;SDS011;49961;43.970;22.868;2022-10-16T04:20:40;19.57;;;8.60;;
63807;SDS011;49961;43.970;22.868;2022-10-16T04:21:40;15.17;;;8.40;;
63807;SDS011;49961;43.970;22.868;2022-10-16T04:22:41;17.87;;;7.93;;
63807;SDS011;49961;43.970;22.868;2022-10-16T04:23:42;15.67;;;7.33;;
63807;SDS011;49961;43.970;22.868;2022-10-16T04:24:43;10.40;;;6.72;;
63807;SDS011;49961;43.970;22.868;2022-10-16T04:25:43;11.90;;;6.97;;
63807;SDS011;49961;43.970;22.868;2022-10-16T04:26:43;11.30;;;6.60;;
63807;SDS011;49961;43.970;22.868;2022-10-16T04:27:44;12.50;;;7.50;;
63807;SDS011;49961;43.970;22.868;2022-10-16T04:28:44;11.07;;;7.03;;
63807;SDS011;49961;43.970;22.868;2022-10-16T04:29:45;10.00;;;7.30;;
63807;SDS011;49961;43.970;22.868;2022-10-16T04:30:45;9.90;;;6.47;;
63807;SDS011;49961;43.970;22.868;2022-10-16T04:31:46;9.17;;;6.80;;
63807;SDS011;49961;43.970;22.868;2022-10-16T04:32:50;8.70;;;6.67;;
63807;SDS011;49961;43.970;22.868;2022-10-16T04:33:51;12.70;;;6.85;;
63807;SDS011;49961;43.970;22.868;2022-10-16T04:34:51;11.23;;;6.90;;
63807;SDS011;49961;43.970;22.868;2022-10-16T04:35:56;12.20;;;6.80;;
63807;SDS011;49961;43.970;22.868;2022-10-16T04:37:00;10.40;;;6.78;;
63807;SDS011;49961;43.970;22.868;2022-10-16T04:38:00;10.20;;;7.03;;
63807;SDS011;49961;43.970;22.868;2022-10-16T04:39:01;10.40;;;6.90;;
63807;SDS011;49961;43.970;22.868;2022-10-16T04:40:01;10.13;;;6.93;;
63807;SDS011;49961;43.970;22.868;2022-10-16T04:41:03;10.87;;;7.00;;
63807;SDS011;49961;43.970;22.868;2022-10-16T04:42:03;10.73;;;7.25;;
63807;SDS011;49961;43.970;22.868;2022-10-16T04:43:04;10.10;;;7.23;;
63807;SDS011;49961;43.970;22.868;2022-10-16T04:44:05;9.27;;;7.10;;
63807;SDS011;49961;43.970;22.868;2022-10-16T04:45:06;10.63;;;6.97;;
63807;SDS011;49961;43.970;22.868;2022-10-16T04:46:08;11.10;;;6.80;;
63807;SDS011;49961;43.970;22.868;2022-10-16T04:47:10;12.02;;;6.88;;
63807;SDS011;49961;43.970;22.868;2022-10-16T04:48:10;9.20;;;7.30;;
63807;SDS011;49961;43.970;22.868;2022-10-16T04:49:11;13.67;;;7.10;;
63807;SDS011;49961;43.970;22.868;2022-10-16T04:50:11;10.53;;;7.30;;
63807;SDS011;49961;43.970;22.868;2022-10-16T04:51:12;10.67;;;7.40;;
63807;SDS011;49961;43.970;22.868;2022-10-16T04:52:13;15.43;;;7.73;;
63807;SDS011;49961;43.970;22.868;2022-10-16T04:53:13;12.97;;;7.23;;
63807;SDS011;49961;43.970;22.868;2022-10-16T04:54:14;14.00;;;8.00;;
63807;SDS011;49961;43.970;22.868;2022-10-16T04:55:14;19.33;;;8.03;;
63807;SDS011;49961;43.970;22.868;2022-10-16T04:56:15;14.43;;;7.65;;
63807;SDS011;49961;43.970;22.868;2022-10-16T04:57:16;11.83;;;7.17;;
63807;SDS011;49961;43.970;22.868;2022-10-16T04:58:17;13.20;;;7.40;;
63807;SDS011;49961;43.970;22.868;2022-10-16T04:59:18;9.47;;;7.43;;
63807;SDS011;49961;43.970;22.868;2022-10-16T05:00:19;9.88;;;7.40;;
63807;SDS011;49961;43.970;22.868;2022-10-16T05:01:20;8.53;;;7.27;;
63807;SDS011;49961;43.970;22.868;2022-10-16T05:02:20;11.37;;;7.60;;
63807;SDS011;49961;43.970;22.868;2022-10-16T05:03:20;10.20;;;7.50;;
63807;SDS011;49961;43.970;22.868;2022-10-16T05:04:21;9.73;;;7.07;;
63807;SDS011;49961;43.970;22.868;2022-10-16T05:05:22;12.27;;;7.63;;
63807;SDS011;49961;43.970;22.868;2022-10-16T05:06:23;10.60;;;7.85;;
63807;SDS011;49961;43.970;22.868;2022-10-16T05:07:23;12.37;;;7.50;;
63807;SDS011;49961;43.970;22.868;2022-10-16T05:08:23;11.17;;;7.63;;
63807;SDS011;49961;43.970;22.868;2022-10-16T05:09:24;11.10;;;7.70;;
63807;SDS011;49961;43.970;22.868;2022-10-16T05:10:24;11.93;;;7.90;;
63807;SDS011;49961;43.970;22.868;2022-10-16T05:11:25;8.83;;;7.93;;
63807;SDS011;49961;43.970;22.868;2022-10-16T05:12:25;9.37;;;7.70;;
63807;SDS011;49961;43.970;22.868;2022-10-16T05:13:26;10.40;;;8.27;;
63807;SDS011;49961;43.970;22.868;2022-10-16T05:14:26;11.47;;;8.30;;
63807;SDS011;49961;43.970;22.868;2022-10-16T05:15:27;13.63;;;7.90;;
63807;SDS011;49961;43.970;22.868;2022-10-16T05:16:29;10.63;;;8.05;;
63807;SDS011;49961;43.970;22.868;2022-10-16T05:17:30;13.55;;;8.25;;
63807;SDS011;49961;43.970;22.868;2022-10-16T05:18:31;11.63;;;9.37;;
63807;SDS011;49961;43.970;22.868;2022-10-16T05:19:31;11.63;;;8.83;;
63807;SDS011;49961;43.970;22.868;2022-10-16T05:20:31;10.53;;;8.10;;
63807;SDS011;49961;43.970;22.868;2022-10-16T05:21:32;11.30;;;7.70;;
63807;SDS011;49961;43.970;22.868;2022-10-16T05:22:32;12.87;;;8.43;;
63807;SDS011;49961;43.970;22.868;2022-10-16T05:23:33;10.37;;;8.20;;
63807;SDS011;49961;43.970;22.868;2022-10-16T05:24:33;10.30;;;8.63;;
63807;SDS011;49961;43.970;22.868;2022-10-16T05:25:34;11.23;;;8.00;;
63807;SDS011;49961;43.970;22.868;2022-10-16T05:26:34;8.70;;;7.80;;
63807;SDS011;49961;43.970;22.868;2022-10-16T05:27:34;9.97;;;7.87;;
63807;SDS011;49961;43.970;22.868;2022-10-16T05:28:35;12.70;;;8.50;;
63807;SDS011;49961;43.970;22.868;2022-10-16T05:29:35;11.60;;;8.47;;
63807;SDS011;49961;43.970;22.868;2022-10-16T05:30:37;11.57;;;8.70;;
63807;SDS011;49961;43.970;22.868;2022-10-16T05:31:37;10.13;;;8.77;;
63807;SDS011;49961;43.970;22.868;2022-10-16T05:32:38;11.77;;;9.17;;
63807;SDS011;49961;43.970;22.868;2022-10-16T05:33:38;10.53;;;9.43;;
63807;SDS011;49961;43.970;22.868;2022-10-16T05:34:38;11.17;;;9.50;;
63807;SDS011;49961;43.970;22.868;2022-10-16T05:35:39;14.10;;;9.93;;
63807;SDS011;49961;43.970;22.868;2022-10-16T05:36:39;14.37;;;10.37;;
63807;SDS011;49961;43.970;22.868;2022-10-16T05:37:40;14.20;;;10.50;;
63807;SDS011;49961;43.970;22.868;2022-10-16T05:38:40;12.93;;;10.17;;
63807;SDS011;49961;43.970;22.868;2022-10-16T05:39:41;14.47;;;10.57;;
63807;SDS011;49961;43.970;22.868;2022-10-16T05:40:41;11.37;;;10.07;;
63807;SDS011;49961;43.970;22.868;2022-10-16T05:41:42;14.57;;;10.53;;
63807;SDS011;49961;43.970;22.868;2022-10-16T05:42:43;15.33;;;10.57;;
63807;SDS011;49961;43.970;22.868;2022-10-16T05:43:43;16.57;;;10.50;;
63807;SDS011;49961;43.970;22.868;2022-10-16T05:44:44;11.87;;;10.27;;
63807;SDS011;49961;43.970;22.868;2022-10-16T05:45:45;13.77;;;10.80;;
63807;SDS011;49961;43.970;22.868;2022-10-16T05:46:54;12.85;;;10.05;;
63807;SDS011;49961;43.970;22.868;2022-10-16T05:47:54;13.33;;;10.17;;
63807;SDS011;49961;43.970;22.868;2022-10-16T05:48:55;13.23;;;10.23;;
63807;SDS011;49961;43.970;22.868;2022-10-16T05:49:55;13.77;;;10.37;;
63807;SDS011;49961;43.970;22.868;2022-10-16T05:50:59;12.90;;;10.00;;
63807;SDS011;49961;43.970;22.868;2022-10-16T05:52:02;16.48;;;10.15;;
63807;SDS011;49961;43.970;22.868;2022-10-16T05:53:02;15.13;;;10.10;;
63807;SDS011;49961;43.970;22.868;2022-10-16T05:54:03;14.30;;;9.73;;
63807;SDS011;49961;43.970;22.868;2022-10-16T05:55:03;13.37;;;9.83;;
63807;SDS011;49961;43.970;22.868;2022-10-16T05:56:04;15.20;;;10.20;;
63807;SDS011;49961;43.970;22.868;2022-10-16T05:57:06;14.87;;;10.07;;
63807;SDS011;49961;43.970;22.868;2022-10-16T05:58:06;14.23;;;10.17;;
63807;SDS011;49961;43.970;22.868;2022-10-16T05:59:07;17.20;;;10.70;;
63807;SDS011;49961;43.970;22.868;2022-10-16T06:00:08;18.50;;;10.27;;
63807;SDS011;49961;43.970;22.868;2022-10-16T06:01:12;17.70;;;10.00;;
63807;SDS011;49961;43.970;22.868;2022-10-16T06:02:15;12.97;;;10.00;;
63807;SDS011;49961;43.970;22.868;2022-10-16T06:03:16;15.73;;;10.47;;
63807;SDS011;49961;43.970;22.868;2022-10-16T06:04:16;12.70;;;10.63;;
63807;SDS011;49961;43.970;22.868;2022-10-16T06:05:16;16.23;;;10.97;;
63807;SDS011;49961;43.970;22.868;2022-10-16T06:06:18;13.33;;;10.80;;
63807;SDS011;49961;43.970;22.868;2022-10-16T06:07:23;16.37;;;10.60;;
63807;SDS011;49961;43.970;22.868;2022-10-16T06:08:24;13.33;;;10.57;;
63807;SDS011;49961;43.970;22.868;2022-10-16T06:09:24;14.93;;;10.53;;
63807;SDS011;49961;43.970;22.868;2022-10-16T06:10:25;14.80;;;9.63;;
63807;SDS011;49961;43.970;22.868;2022-10-16T06:11:26;11.40;;;9.97;;
63807;SDS011;49961;43.970;22.868;2022-10-16T06:12:28;16.10;;;10.63;;
63807;SDS011;49961;43.970;22.868;2022-10-16T06:13:28;16.73;;;10.57;;
63807;SDS011;49961;43.970;22.868;2022-10-16T06:14:29;12.70;;;10.20;;
63807;SDS011;49961;43.970;22.868;2022-10-16T06:15:29;12.37;;;10.27;;
63807;SDS011;49961;43.970;22.868;2022-10-16T06:16:30;16.93;;;10.50;;
63807;SDS011;49961;43.970;22.868;2022-10-16T06:17:30;16.83;;;10.27;;
63807;SDS011;49961;43.970;22.868;2022-10-16T06:18:31;14.73;;;11.47;;
63807;SDS011;49961;43.970;22.868;2022-10-16T06:19:31;14.17;;;10.70;;